Time;durP1;ratioP1;P1;durP2;ratioP2;P2;SDS_P1;SDS_P2;PMS_P1;PMS_P2;Temp;Humidity;BMP_temperature;BMP_pressure;BME280_temperature;BME280_humidity;BME280_pressure;Samples;Min_cycle;Max_cycle;Signal;HPM_P1;HPM_P2
2023/04/13 00:00:07;;;;;;;9.23;1.20;;;7.60;99.90;;;;;;4070657;29;20192;-92
2023/04/13 00:02:09;;;;;;;10.73;1.40;;;7.60;99.90;;;;;;4071578;29;20657;-93
2023/04/13 00:04:09;;;;;;;6.97;1.43;;;7.70;99.90;;;;;;4055303;29;20356;-94
2023/04/13 00:06:10;;;;;;;12.50;1.77;;;7.70;99.90;;;;;;4085948;29;20175;-94
2023/04/13 00:08:11;;;;;;;17.30;2.17;;;7.60;99.90;;;;;;4054481;29;20189;-93
2023/04/13 00:10:12;;;;;;;11.77;1.90;;;7.70;99.90;;;;;;4071577;29;20216;-94
2023/04/13 00:12:15;;;;;;;13.57;1.70;;;7.80;99.90;;;;;;4054974;29;20173;-92
2023/04/13 00:14:17;;;;;;;18.33;2.27;;;7.80;99.90;;;;;;4055251;29;20256;-92
2023/04/13 00:16:18;;;;;;;11.97;1.73;;;7.80;99.90;;;;;;4070274;29;20180;-93
2023/04/13 00:18:19;;;;;;;10.70;2.17;;;7.80;99.90;;;;;;4055416;29;20237;-90
2023/04/13 00:20:20;;;;;;;10.00;1.60;;;8.00;99.90;;;;;;4070542;29;20656;-94
2023/04/13 00:22:21;;;;;;;16.40;2.30;;;8.00;99.90;;;;;;4054221;29;20216;-93
2023/04/13 00:24:22;;;;;;;11.73;1.50;;;8.00;99.90;;;;;;4069969;29;20660;-93
2023/04/13 00:26:24;;;;;;;10.50;1.27;;;8.00;99.90;;;;;;4085826;29;20668;-93
2023/04/13 00:28:24;;;;;;;7.30;1.20;;;7.90;99.90;;;;;;4054328;29;20181;-93
2023/04/13 00:30:25;;;;;;;13.13;1.43;;;7.90;99.90;;;;;;4070051;29;20223;-93
2023/04/13 00:32:26;;;;;;;10.83;1.47;;;7.90;99.90;;;;;;4054264;29;20188;-94
2023/04/13 00:34:27;;;;;;;10.10;1.23;;;7.90;99.90;;;;;;4053865;29;20283;-94
2023/04/13 00:36:28;;;;;;;11.63;1.70;;;7.90;99.90;;;;;;4070248;29;20212;-94
2023/04/13 00:38:30;;;;;;;10.27;1.87;;;7.80;99.90;;;;;;4070194;29;20175;-95
2023/04/13 00:40:36;;;;;;;9.93;1.70;;;7.90;99.90;;;;;;4054588;29;20196;-91
2023/04/13 00:42:37;;;;;;;12.20;1.70;;;7.90;99.90;;;;;;4054222;29;20221;-92
2023/04/13 00:44:40;;;;;;;11.73;1.60;;;8.00;99.90;;;;;;4085618;29;20198;-92
2023/04/13 00:46:45;;;;;;;14.60;1.50;;;8.10;99.90;;;;;;4054349;29;20565;-94
2023/04/13 00:48:47;;;;;;;13.33;1.83;;;8.20;99.90;;;;;;4069982;29;20632;-93
2023/04/13 00:50:48;;;;;;;10.73;1.67;;;8.00;99.90;;;;;;4054205;29;20176;-95
2023/04/13 00:52:49;;;;;;;7.50;1.10;;;8.10;99.90;;;;;;4054442;29;20173;-93
2023/04/13 00:54:55;;;;;;;12.17;1.87;;;8.00;99.90;;;;;;4069788;29;20283;-92
2023/04/13 00:57:00;;;;;;;17.83;2.23;;;8.10;99.90;;;;;;4069711;29;20259;-92
2023/04/13 00:59:02;;;;;;;13.97;2.20;;;8.00;99.90;;;;;;4069823;29;20665;-93
2023/04/13 01:01:03;;;;;;;12.87;1.73;;;8.10;99.90;;;;;;4053651;29;20193;-93
2023/04/13 01:03:04;;;;;;;7.87;1.60;;;8.00;99.90;;;;;;4069248;29;20613;-94
2023/04/13 01:05:06;;;;;;;9.30;2.57;;;8.00;99.90;;;;;;4054351;29;20173;-93
2023/04/13 01:07:23;;;;;;;19.87;2.00;;;8.00;99.90;;;;;;4054096;29;20657;-94
2023/04/13 01:09:51;;;;;;;13.37;2.10;;;8.00;99.90;;;;;;4069402;29;20661;-94
2023/04/13 01:12:04;;;;;;;15.87;2.00;;;8.00;99.90;;;;;;4069459;29;20180;-94
2023/04/13 01:14:18;;;;;;;12.87;1.87;;;7.90;99.90;;;;;;4053718;29;20247;-93
2023/04/13 01:16:43;;;;;;;12.20;1.80;;;8.00;99.90;;;;;;4054133;29;20176;-93
2023/04/13 01:18:49;;;;;;;14.23;1.67;;;7.90;99.90;;;;;;4053477;29;20605;-92
2023/04/13 01:20:51;;;;;;;14.23;2.10;;;8.00;99.90;;;;;;4053721;29;20218;-94
2023/04/13 01:23:03;;;;;;;14.03;1.90;;;8.20;99.90;;;;;;4053929;29;20275;-92
2023/04/13 01:25:38;;;;;;;13.90;1.70;;;8.00;99.90;;;;;;4055063;29;20626;-94
2023/04/13 01:28:10;;;;;;;9.87;1.70;;;8.10;99.90;;;;;;4053924;29;20168;-94
2023/04/13 01:30:23;;;;;;;5.47;1.30;;;8.00;99.90;;;;;;4047154;29;20193;-94
2023/04/13 01:32:27;;;;;;;7.90;1.13;;;8.10;99.90;;;;;;4053709;29;20237;-94
2023/04/13 01:34:28;;;;;;;9.20;1.27;;;8.00;99.90;;;;;;4069907;29;20191;-92
2023/04/13 01:36:32;;;;;;;7.10;0.90;;;8.10;99.90;;;;;;4054075;29;20177;-92
2023/04/13 01:38:33;;;;;;;2.67;0.67;;;8.10;99.90;;;;;;4068760;29;20192;-93
2023/04/13 01:40:39;;;;;;;3.13;0.50;;;8.00;99.90;;;;;;4053344;29;20177;-93
2023/04/13 01:42:41;;;;;;;2.50;0.40;;;8.00;99.90;;;;;;4053211;29;20245;-94
2023/04/13 01:44:44;;;;;;;1.37;0.23;;;8.00;99.90;;;;;;4069023;29;20170;-93
2023/04/13 01:46:51;;;;;;;0.97;0.40;;;8.00;99.90;;;;;;4068895;29;20215;-92
2023/04/13 01:49:13;;;;;;;1.77;0.30;;;8.00;99.90;;;;;;4068968;29;20239;-92
2023/04/13 01:51:16;;;;;;;1.90;0.40;;;7.90;99.90;;;;;;4068688;29;20185;-91
2023/04/13 01:53:27;;;;;;;4.17;0.53;;;7.90;99.90;;;;;;4053127;29;20669;-94
2023/04/13 01:55:29;;;;;;;2.60;0.43;;;7.90;99.90;;;;;;4053215;29;20233;-93
2023/04/13 01:57:34;;;;;;;2.73;0.50;;;8.00;99.90;;;;;;4053554;29;20191;-92
2023/04/13 01:59:38;;;;;;;6.53;0.77;;;8.10;99.90;;;;;;4053306;29;20196;-92
2023/04/13 02:01:39;;;;;;;2.77;0.40;;;7.90;99.90;;;;;;4068797;29;20168;-94
2023/04/13 02:03:42;;;;;;;6.00;0.60;;;7.90;99.90;;;;;;4067846;29;20212;-93
2023/04/13 02:05:43;;;;;;;3.07;0.50;;;8.10;99.90;;;;;;4068359;29;20267;-94
2023/04/13 02:07:47;;;;;;;1.73;0.40;;;8.00;99.90;;;;;;4084074;29;20187;-92
2023/04/13 02:09:49;;;;;;;3.40;0.50;;;7.90;99.90;;;;;;4068889;29;20183;-93
2023/04/13 02:11:50;;;;;;;3.80;0.60;;;7.80;99.90;;;;;;4053049;29;20188;-93
2023/04/13 02:13:51;;;;;;;3.53;0.77;;;7.70;99.90;;;;;;4053041;29;20252;-93
2023/04/13 02:15:54;;;;;;;2.00;0.50;;;7.70;99.90;;;;;;4069040;29;20219;-93
2023/04/13 02:17:57;;;;;;;5.00;0.60;;;7.80;99.90;;;;;;4068725;29;20633;-94
2023/04/13 02:19:58;;;;;;;4.77;0.70;;;7.60;99.90;;;;;;4068727;29;20240;-94
2023/04/13 02:21:59;;;;;;;3.77;0.70;;;7.60;99.90;;;;;;4053027;29;20220;-92
2023/04/13 02:24:00;;;;;;;3.30;0.60;;;7.60;99.90;;;;;;4068256;29;20199;-92
2023/04/13 02:26:01;;;;;;;6.00;0.70;;;7.70;99.90;;;;;;4052916;29;20200;-94
2023/04/13 02:28:03;;;;;;;1.60;0.43;;;7.50;99.90;;;;;;4052624;29;20606;-94
2023/04/13 02:30:05;;;;;;;6.47;0.60;;;7.70;99.90;;;;;;4052486;29;20706;-94
2023/04/13 02:32:06;;;;;;;4.47;0.60;;;7.80;99.90;;;;;;4052591;29;20177;-93
2023/04/13 02:34:07;;;;;;;3.07;0.40;;;7.80;99.90;;;;;;4068429;29;20263;-94
2023/04/13 02:36:09;;;;;;;5.17;0.60;;;7.80;99.90;;;;;;4052938;29;20721;-93
2023/04/13 02:38:12;;;;;;;3.37;0.57;;;7.70;99.90;;;;;;4068462;29;20180;-94
2023/04/13 02:40:18;;;;;;;4.57;0.60;;;7.70;99.90;;;;;;4068373;29;20637;-92
2023/04/13 02:42:20;;;;;;;2.97;0.43;;;7.70;99.90;;;;;;4067956;29;20311;-92
2023/04/13 02:44:21;;;;;;;1.70;0.40;;;7.80;99.90;;;;;;4067985;29;20219;-92
2023/04/13 02:46:29;;;;;;;5.97;0.60;;;7.80;99.90;;;;;;4053340;29;20328;-92
2023/04/13 02:48:36;;;;;;;3.77;0.60;;;7.70;99.90;;;;;;4068104;29;20223;-92
2023/04/13 02:50:39;;;;;;;1.30;0.40;;;7.70;99.90;;;;;;4068238;29;20176;-93
2023/04/13 02:52:45;;;;;;;3.93;0.50;;;7.70;99.90;;;;;;4068614;29;20180;-93
2023/04/13 02:54:46;;;;;;;4.47;0.50;;;7.70;99.90;;;;;;4068272;29;20184;-92
2023/04/13 02:57:00;;;;;;;4.10;0.50;;;7.70;99.90;;;;;;4053882;29;20180;-92
2023/04/13 02:59:01;;;;;;;5.37;0.63;;;7.70;99.90;;;;;;4052698;29;20189;-92
2023/04/13 03:01:03;;;;;;;4.73;0.60;;;7.70;99.90;;;;;;4068030;29;20187;-93
2023/04/13 03:03:05;;;;;;;4.60;0.57;;;7.50;99.90;;;;;;4052510;29;20307;-94
2023/04/13 03:05:12;;;;;;;4.40;1.00;;;7.60;99.90;;;;;;4068207;29;20199;-93
2023/04/13 03:07:16;;;;;;;3.93;0.50;;;7.50;99.90;;;;;;4068141;29;20172;-93
2023/04/13 03:09:20;;;;;;;6.97;0.60;;;7.60;99.90;;;;;;4052747;29;20205;-92
2023/04/13 03:11:26;;;;;;;2.90;0.40;;;7.70;99.90;;;;;;4053240;29;20253;-92
2023/04/13 03:13:40;;;;;;;5.57;0.70;;;7.60;99.90;;;;;;4054027;29;20236;-93
2023/04/13 03:15:42;;;;;;;2.63;0.60;;;7.70;99.90;;;;;;4070884;29;20232;-93
2023/04/13 03:17:44;;;;;;;5.33;0.57;;;7.70;99.90;;;;;;4071165;29;20183;-93
2023/04/13 03:19:50;;;;;;;6.63;0.77;;;7.70;99.90;;;;;;4071234;29;20180;-94
2023/04/13 03:21:54;;;;;;;4.00;0.60;;;7.60;99.90;;;;;;4070464;29;20208;-93
2023/04/13 03:23:58;;;;;;;6.80;0.80;;;7.60;99.90;;;;;;4070790;29;20196;-93
2023/04/13 03:25:59;;;;;;;5.23;0.77;;;7.50;99.90;;;;;;4070958;29;20223;-93
2023/04/13 03:28:00;;;;;;;6.13;0.90;;;7.50;99.90;;;;;;4055354;29;20168;-93
2023/04/13 03:30:08;;;;;;;3.07;0.50;;;7.30;99.90;;;;;;4055931;29;20188;-92
2023/04/13 03:32:19;;;;;;;4.93;1.00;;;7.50;99.90;;;;;;4056197;29;20177;-93
2023/04/13 03:34:23;;;;;;;4.43;0.67;;;7.50;99.90;;;;;;4055563;29;20232;-93
2023/04/13 03:36:26;;;;;;;4.63;1.03;;;7.60;99.90;;;;;;4071063;29;20176;-92
2023/04/13 03:38:27;;;;;;;3.27;0.90;;;7.60;99.90;;;;;;4055223;29;20228;-93
2023/04/13 03:40:28;;;;;;;6.57;0.93;;;7.60;99.90;;;;;;4086849;29;20183;-93
2023/04/13 03:42:30;;;;;;;5.40;0.73;;;7.60;99.90;;;;;;4055121;29;20243;-93
2023/04/13 03:44:33;;;;;;;4.63;0.70;;;7.70;99.90;;;;;;4055056;29;20193;-94
2023/04/13 03:46:36;;;;;;;3.10;0.67;;;7.50;99.90;;;;;;4070875;29;20180;-93
2023/04/13 03:48:43;;;;;;;5.67;1.00;;;7.60;99.90;;;;;;4070779;29;20172;-92
2023/04/13 03:50:48;;;;;;;5.40;0.80;;;7.60;99.90;;;;;;4070734;29;20586;-94
2023/04/13 03:52:54;;;;;;;5.53;1.03;;;7.60;99.90;;;;;;4070305;29;20176;-92
2023/04/13 03:54:55;;;;;;;9.00;1.23;;;7.70;99.90;;;;;;4070629;29;20285;-93
2023/04/13 03:56:59;;;;;;;5.50;0.87;;;7.70;99.90;;;;;;4070833;29;20259;-94
2023/04/13 03:59:00;;;;;;;5.00;1.00;;;7.70;99.90;;;;;;4070272;29;20188;-93
2023/04/13 04:01:01;;;;;;;5.23;0.77;;;7.70;99.90;;;;;;4054740;29;20173;-93
2023/04/13 04:03:16;;;;;;;10.87;1.13;;;7.80;99.90;;;;;;4056238;29;20277;-93
2023/04/13 04:05:40;;;;;;;3.20;0.83;;;7.70;99.90;;;;;;4070047;29;20642;-93
2023/04/13 04:07:40;;;;;;;8.73;0.93;;;7.60;99.90;;;;;;4070484;29;20665;-92
2023/04/13 04:09:43;;;;;;;8.00;1.20;;;7.60;99.90;;;;;;4071821;29;20183;-93
2023/04/13 04:11:45;;;;;;;8.67;1.20;;;7.70;99.90;;;;;;4070260;29;20641;-93
2023/04/13 04:13:47;;;;;;;8.10;1.20;;;7.70;99.90;;;;;;4054388;29;20200;-93
2023/04/13 04:15:48;;;;;;;7.27;1.33;;;7.70;99.90;;;;;;4069807;29;20183;-94
2023/04/13 04:17:50;;;;;;;10.97;2.40;;;7.70;99.90;;;;;;4054398;29;20639;-92
2023/04/13 04:19:51;;;;;;;12.63;2.80;;;7.70;99.90;;;;;;4054474;29;20173;-93
2023/04/13 04:21:56;;;;;;;12.60;2.50;;;7.80;99.90;;;;;;4054832;29;20204;-92
2023/04/13 04:24:05;;;;;;;8.53;1.30;;;7.80;99.90;;;;;;4054506;29;20578;-92
2023/04/13 04:26:07;;;;;;;11.10;1.63;;;7.80;99.90;;;;;;4053807;29;20641;-93
2023/04/13 04:28:18;;;;;;;7.77;1.30;;;7.80;99.90;;;;;;4069784;29;20180;-92
2023/04/13 04:30:23;;;;;;;7.57;1.40;;;7.90;99.90;;;;;;4070055;29;20168;-94
2023/04/13 04:32:24;;;;;;;12.10;2.07;;;8.00;99.90;;;;;;4054262;29;20208;-92
2023/04/13 04:34:25;;;;;;;11.70;1.43;;;8.10;99.90;;;;;;4069635;29;20243;-92
2023/04/13 04:36:26;;;;;;;11.73;2.10;;;8.20;99.90;;;;;;4069733;29;20187;-94
2023/04/13 04:38:31;;;;;;;9.30;1.43;;;8.20;99.90;;;;;;4054805;29;20525;-93
2023/04/13 04:40:36;;;;;;;7.70;2.00;;;8.10;99.90;;;;;;4069810;29;20565;-93
2023/04/13 04:42:40;;;;;;;10.90;3.23;;;8.20;99.90;;;;;;4069906;29;20271;-93
2023/04/13 04:44:48;;;;;;;11.90;3.10;;;8.20;99.90;;;;;;4054994;29;20594;-94
2023/04/13 04:46:51;;;;;;;11.13;3.10;;;8.20;99.90;;;;;;4069572;29;20267;-92
2023/04/13 04:48:53;;;;;;;7.23;1.80;;;8.20;99.90;;;;;;4054056;29;20173;-93
2023/04/13 04:50:57;;;;;;;12.43;2.13;;;8.30;99.90;;;;;;4069411;29;20228;-93
2023/04/13 04:53:02;;;;;;;12.57;1.57;;;8.30;99.90;;;;;;4069815;29;20606;-93
2023/04/13 04:55:05;;;;;;;12.90;1.30;;;8.50;99.90;;;;;;4053936;29;20188;-93
2023/04/13 04:57:09;;;;;;;8.43;1.47;;;8.40;99.90;;;;;;4053963;29;20259;-93
2023/04/13 04:59:12;;;;;;;9.07;1.60;;;8.30;99.90;;;;;;4069295;29;20192;-94
2023/04/13 05:01:25;;;;;;;9.20;1.73;;;8.50;99.90;;;;;;4069585;29;20242;-94
2023/04/13 05:03:30;;;;;;;10.13;1.10;;;8.60;99.90;;;;;;4069519;29;20693;-94
2023/04/13 05:05:42;;;;;;;10.27;1.73;;;8.60;99.90;;;;;;4054890;29;20185;-94
2023/04/13 05:07:48;;;;;;;7.83;1.10;;;8.70;99.90;;;;;;4069238;29;20191;-93
2023/04/13 05:09:50;;;;;;;10.30;1.50;;;8.60;99.90;;;;;;4069382;29;20179;-94
2023/04/13 05:11:51;;;;;;;8.33;1.53;;;8.70;99.90;;;;;;4069084;29;20180;-93
2023/04/13 05:13:55;;;;;;;13.73;1.70;;;8.70;99.90;;;;;;4053605;29;20701;-93
2023/04/13 05:15:58;;;;;;;8.10;1.30;;;8.70;99.90;;;;;;4069533;29;20180;-93
2023/04/13 05:17:58;;;;;;;11.77;1.50;;;8.70;99.90;;;;;;4053644;29;20177;-93
2023/04/13 05:20:06;;;;;;;14.93;1.53;;;8.60;99.90;;;;;;4084441;29;20227;-92
2023/04/13 05:22:18;;;;;;;7.23;1.53;;;8.60;99.90;;;;;;4054761;29;20354;-93
2023/04/13 05:24:27;;;;;;;11.60;1.47;;;8.60;99.90;;;;;;4068758;29;20255;-94
2023/04/13 05:26:29;;;;;;;12.97;1.83;;;8.60;99.90;;;;;;4053545;29;20547;-93
2023/04/13 05:28:30;;;;;;;12.50;1.57;;;8.80;99.90;;;;;;4069195;29;20180;-94
2023/04/13 05:30:31;;;;;;;14.13;1.83;;;8.70;99.90;;;;;;4053604;29;20639;-92
2023/04/13 05:32:33;;;;;;;12.07;1.97;;;8.70;99.90;;;;;;4053479;29;20185;-92
2023/04/13 05:34:37;;;;;;;14.80;1.93;;;8.60;99.90;;;;;;4069011;29;20542;-93
2023/04/13 05:36:52;;;;;;;13.60;1.83;;;8.90;99.90;;;;;;4068927;29;20720;-95
2023/04/13 05:38:55;;;;;;;10.93;1.77;;;9.00;99.90;;;;;;4053522;29;20188;-94
2023/04/13 05:40:58;;;;;;;9.93;1.77;;;8.90;99.90;;;;;;4068820;29;20351;-93
2023/04/13 05:42:59;;;;;;;17.47;2.23;;;9.00;99.90;;;;;;4084567;29;20222;-91
2023/04/13 05:45:08;;;;;;;19.23;2.23;;;8.80;99.90;;;;;;4068722;29;20593;-93
2023/04/13 05:47:11;;;;;;;16.20;1.80;;;9.00;99.90;;;;;;4053579;29;20177;-94
2023/04/13 05:49:12;;;;;;;15.37;1.90;;;9.10;99.90;;;;;;4068931;29;20169;-93
2023/04/13 05:51:15;;;;;;;15.77;2.70;;;8.90;99.90;;;;;;4053074;29;20229;-92
2023/04/13 05:53:17;;;;;;;20.80;2.20;;;8.90;99.90;;;;;;4068720;29;20210;-93
2023/04/13 05:55:22;;;;;;;16.23;2.23;;;9.00;99.90;;;;;;4068688;29;20187;-93
2023/04/13 05:57:30;;;;;;;13.63;3.57;;;8.90;99.90;;;;;;4068967;29;20667;-96
2023/04/13 05:59:32;;;;;;;24.37;2.23;;;9.00;99.90;;;;;;4068636;29;20282;-93
2023/04/13 06:01:36;;;;;;;13.83;2.20;;;9.10;99.90;;;;;;4068700;29;20180;-93
2023/04/13 06:03:37;;;;;;;16.17;2.40;;;9.30;99.90;;;;;;4068493;29;20669;-94
2023/04/13 06:05:38;;;;;;;13.23;2.57;;;9.40;99.90;;;;;;4084493;29;20183;-94
2023/04/13 06:07:42;;;;;;;17.63;2.87;;;9.40;99.90;;;;;;4052885;29;20204;-94
2023/04/13 06:09:43;;;;;;;16.50;2.40;;;9.50;99.90;;;;;;4053068;29;20598;-95
2023/04/13 06:11:44;;;;;;;16.63;2.40;;;9.50;99.90;;;;;;4068861;29;20176;-94
2023/04/13 06:13:45;;;;;;;18.13;2.77;;;9.50;99.90;;;;;;4053059;29;20251;-93
2023/04/13 06:15:45;;;;;;;18.80;2.22;;;9.50;99.90;;;;;;4068323;29;20180;-92
2023/04/13 06:17:49;;;;;;;17.63;3.00;;;9.60;99.90;;;;;;4053015;29;20606;-94
2023/04/13 06:19:50;;;;;;;18.83;2.17;;;9.70;99.90;;;;;;4053116;29;20267;-92
2023/04/13 06:21:51;;;;;;;29.53;3.20;;;9.70;99.90;;;;;;4053870;29;20188;-93
2023/04/13 06:23:52;;;;;;;18.37;3.20;;;9.50;99.90;;;;;;4072675;29;20225;-94
2023/04/13 06:26:02;;;;;;;21.30;2.70;;;9.60;99.90;;;;;;4057372;29;20332;-93
2023/04/13 06:28:13;;;;;;;22.40;2.63;;;9.50;99.90;;;;;;4054078;29;20188;-94
2023/04/13 06:30:17;;;;;;;17.23;2.73;;;9.50;99.90;;;;;;4053273;29;20165;-93
2023/04/13 06:32:18;;;;;;;21.63;3.17;;;9.50;99.90;;;;;;4068559;29;20180;-94
2023/04/13 06:34:19;;;;;;;18.05;2.45;;;9.60;99.90;;;;;;4052573;29;20211;-92
2023/04/13 06:36:20;;;;;;;14.73;2.40;;;9.30;99.90;;;;;;4068402;29;20196;-93
2023/04/13 06:38:21;;;;;;;15.23;2.40;;;9.40;99.90;;;;;;4052649;29;20311;-94
2023/04/13 06:40:31;;;;;;;13.00;2.20;;;9.50;99.90;;;;;;4069427;29;20184;-94
2023/04/13 06:42:36;;;;;;;21.47;3.13;;;9.60;99.90;;;;;;4053120;29;20719;-92
2023/04/13 06:44:57;;;;;;;13.57;2.40;;;9.80;99.90;;;;;;4078114;29;20175;-94
2023/04/13 06:46:59;;;;;;;25.80;3.53;;;10.00;99.90;;;;;;4052820;29;20199;-93
2023/04/13 06:49:01;;;;;;;20.83;3.00;;;9.90;99.90;;;;;;4068600;29;20549;-93
2023/04/13 06:51:06;;;;;;;21.20;2.50;;;9.80;99.90;;;;;;4071597;29;20275;-92
2023/04/13 06:53:08;;;;;;;14.17;2.10;;;10.00;99.90;;;;;;4071530;29;20196;-93
2023/04/13 06:55:09;;;;;;;19.67;2.50;;;10.20;99.90;;;;;;4071424;29;20275;-93
2023/04/13 06:57:13;;;;;;;18.65;2.60;;;10.50;99.90;;;;;;4055823;29;20181;-93
2023/04/13 06:59:14;;;;;;;17.30;2.90;;;10.50;99.90;;;;;;4071370;29;20581;-94
2023/04/13 07:01:16;;;;;;;20.38;2.80;;;10.80;99.90;;;;;;4071434;29;20176;-93
2023/04/13 07:03:17;;;;;;;18.15;2.50;;;10.70;99.90;;;;;;4055323;29;20216;-93
2023/04/13 07:05:18;;;;;;;18.77;2.35;;;11.00;99.90;;;;;;4071361;29;20181;-93
2023/04/13 07:07:23;;;;;;;16.75;2.92;;;11.40;99.90;;;;;;4056122;29;20181;-95
2023/04/13 07:09:26;;;;;;;19.80;3.03;;;11.60;99.90;;;;;;4071166;29;20176;-92
2023/04/13 07:11:27;;;;;;;14.07;2.10;;;12.00;99.90;;;;;;4055578;29;20173;-95
2023/04/13 07:13:28;;;;;;;13.43;2.10;;;12.00;99.90;;;;;;4071009;29;20192;-94
2023/04/13 07:15:30;;;;;;;20.15;2.58;;;11.70;99.90;;;;;;4055608;29;20197;-93
2023/04/13 07:17:31;;;;;;;18.33;2.55;;;11.80;99.90;;;;;;4070901;29;20546;-92
2023/04/13 07:19:33;;;;;;;17.48;2.78;;;11.60;99.90;;;;;;4055622;29;20191;-94
2023/04/13 07:21:34;;;;;;;16.45;2.90;;;11.70;99.90;;;;;;4055261;29;20181;-93
2023/04/13 07:23:38;;;;;;;16.27;2.55;;;11.60;99.90;;;;;;4055470;29;20236;-95
2023/04/13 07:25:38;;;;;;;17.50;2.20;;;11.30;99.90;;;;;;4070745;29;20168;-92
2023/04/13 07:27:49;;;;;;;14.50;2.20;;;11.20;99.90;;;;;;4070749;29;20222;-93
2023/04/13 07:29:51;;;;;;;14.20;2.60;;;11.30;99.90;;;;;;4055404;29;20173;-94
2023/04/13 07:32:00;;;;;;;14.93;2.20;;;11.10;99.90;;;;;;4055846;29;20662;-93
2023/04/13 07:34:01;;;;;;;15.05;2.40;;;11.20;99.90;;;;;;4055466;29;20189;-94
2023/04/13 07:36:08;;;;;;;19.35;2.63;;;11.50;99.90;;;;;;4070978;29;20180;-94
2023/04/13 07:38:10;;;;;;;19.77;2.65;;;11.70;99.90;;;;;;4055223;29;20169;-93
2023/04/13 07:40:12;;;;;;;15.60;2.35;;;11.80;99.90;;;;;;4070915;29;20206;-92
2023/04/13 07:42:16;;;;;;;15.15;2.55;;;11.70;99.90;;;;;;4055597;29;20486;-94
2023/04/13 07:44:21;;;;;;;16.58;2.83;;;11.80;99.90;;;;;;4070921;29;20219;-94
2023/04/13 07:46:25;;;;;;;19.42;3.40;;;12.20;99.90;;;;;;4071163;29;20184;-94
2023/04/13 07:48:27;;;;;;;15.85;2.08;;;12.70;99.90;;;;;;4071079;29;20180;-94
2023/04/13 07:50:28;;;;;;;21.08;2.45;;;13.10;99.90;;;;;;4086811;29;20636;-93
2023/04/13 07:52:29;;;;;;;14.82;2.30;;;13.20;99.90;;;;;;4055024;29;20173;-93
2023/04/13 07:54:30;;;;;;;13.75;2.22;;;13.60;99.90;;;;;;4054560;29;20232;-94
2023/04/13 07:56:31;;;;;;;13.07;2.40;;;14.40;99.90;;;;;;4054831;29;20200;-93
2023/04/13 07:58:33;;;;;;;19.48;2.70;;;15.20;99.90;;;;;;4086034;29;20259;-93
2023/04/13 08:00:34;;;;;;;22.25;2.97;;;15.00;99.90;;;;;;4054119;29;20193;-94
2023/04/13 08:02:37;;;;;;;19.70;2.75;;;14.90;99.90;;;;;;4054768;29;20294;-93
2023/04/13 08:04:39;;;;;;;13.23;2.08;;;15.30;99.90;;;;;;4071525;29;20176;-94
2023/04/13 08:06:41;;;;;;;15.60;2.60;;;15.70;99.90;;;;;;4054668;29;20181;-93
2023/04/13 08:08:42;;;;;;;14.63;2.08;;;15.10;99.90;;;;;;4070806;29;20687;-93
2023/04/13 08:10:43;;;;;;;11.40;2.15;;;14.60;99.90;;;;;;4054665;29;20181;-93
2023/04/13 08:12:44;;;;;;;19.45;2.42;;;14.30;99.90;;;;;;4070039;29;20272;-94
2023/04/13 08:14:49;;;;;;;13.32;2.47;;;14.40;99.90;;;;;;4070684;29;20180;-93
2023/04/13 08:16:50;;;;;;;19.13;2.63;;;14.30;99.90;;;;;;4054392;29;20172;-93
2023/04/13 08:18:55;;;;;;;15.98;2.65;;;14.10;99.90;;;;;;4085763;29;20643;-94
2023/04/13 08:21:00;;;;;;;13.00;2.53;;;14.20;99.90;;;;;;4054517;29;20245;-93
2023/04/13 08:23:04;;;;;;;12.55;2.55;;;14.10;99.90;;;;;;4070071;29;20216;-94
2023/04/13 08:25:05;;;;;;;16.08;2.22;;;13.80;99.90;;;;;;4054624;29;20165;-93
2023/04/13 08:27:06;;;;;;;17.13;3.00;;;13.80;99.90;;;;;;4054419;29;20184;-92
2023/04/13 08:29:08;;;;;;;11.32;2.22;;;13.80;99.90;;;;;;4070086;29;20211;-92
2023/04/13 08:31:09;;;;;;;16.15;2.03;;;13.40;99.90;;;;;;4054554;29;20254;-93
2023/04/13 08:33:12;;;;;;;23.10;2.67;;;13.10;99.90;;;;;;4070200;29;20224;-92
2023/04/13 08:35:13;;;;;;;14.63;2.35;;;12.90;99.90;;;;;;4054651;29;20177;-92
2023/04/13 08:37:15;;;;;;;17.15;2.70;;;13.10;99.90;;;;;;4069950;29;20164;-92
2023/04/13 08:39:16;;;;;;;14.90;2.20;;;13.20;99.90;;;;;;4054309;29;20665;-93
2023/04/13 08:41:20;;;;;;;14.15;2.50;;;13.50;99.90;;;;;;4069652;29;20176;-93
2023/04/13 08:43:23;;;;;;;18.30;2.25;;;14.10;99.90;;;;;;4053957;29;20213;-93
2023/04/13 08:45:24;;;;;;;14.88;2.35;;;14.60;99.90;;;;;;4069610;29;20233;-93
2023/04/13 08:47:28;;;;;;;16.25;2.33;;;14.10;99.90;;;;;;4069771;29;20575;-92
2023/04/13 08:49:30;;;;;;;16.17;2.35;;;14.10;99.90;;;;;;4054023;29;20183;-92
2023/04/13 08:51:46;;;;;;;19.30;2.70;;;14.30;99.90;;;;;;4069709;29;20176;-93
2023/04/13 08:53:52;;;;;;;12.18;2.33;;;15.20;99.90;;;;;;4069785;29;20283;-94
2023/04/13 08:56:02;;;;;;;21.75;2.55;;;15.30;99.90;;;;;;4055086;29;20181;-93
2023/04/13 08:58:04;;;;;;;18.27;2.15;;;15.00;99.90;;;;;;4054853;29;20208;-93
2023/04/13 09:00:11;;;;;;;15.38;2.25;;;15.30;99.90;;;;;;4069901;29;20752;-93
2023/04/13 09:02:13;;;;;;;14.93;2.08;;;15.70;99.90;;;;;;4053967;29;20212;-95
2023/04/13 09:04:28;;;;;;;15.20;2.13;;;15.70;99.90;;;;;;4070983;29;20192;-94
2023/04/13 09:06:34;;;;;;;20.63;2.20;;;15.90;99.90;;;;;;4071565;29;20183;-93
2023/04/13 09:08:40;;;;;;;14.10;2.20;;;15.80;99.90;;;;;;4071395;29;20243;-94
2023/04/13 09:10:42;;;;;;;13.32;1.85;;;16.10;99.90;;;;;;4053979;29;20197;-94
2023/04/13 09:12:43;;;;;;;11.63;2.40;;;16.80;99.90;;;;;;4068913;29;20200;-95
2023/04/13 09:14:44;;;;;;;9.85;2.30;;;17.20;99.90;;;;;;4069445;29;20534;-94
2023/04/13 09:16:46;;;;;;;12.93;2.05;;;16.90;99.90;;;;;;4069190;29;20228;-93
2023/04/13 09:18:57;;;;;;;14.77;2.28;;;16.80;99.90;;;;;;4054547;29;20281;-93
2023/04/13 09:20:59;;;;;;;12.50;1.95;;;17.40;99.90;;;;;;4069616;29;20193;-93
2023/04/13 09:23:10;;;;;;;16.30;2.33;;;17.60;99.90;;;;;;4053812;29;20217;-95
2023/04/13 09:25:28;;;;;;;15.20;2.40;;;17.80;99.90;;;;;;4069284;29;20171;-95
2023/04/13 09:27:28;;;;;;;6.32;1.50;;;17.10;99.90;;;;;;4069467;29;20271;-93
2023/04/13 09:29:29;;;;;;;12.07;2.20;;;16.70;99.90;;;;;;4069261;29;20180;-94
2023/04/13 09:31:33;;;;;;;13.35;2.17;;;16.30;99.90;;;;;;4053922;29;20177;-94
2023/04/13 09:33:46;;;;;;;14.95;2.55;;;16.40;99.90;;;;;;4053371;29;20208;-92
2023/04/13 09:35:47;;;;;;;14.63;2.55;;;16.20;99.90;;;;;;4069175;29;20263;-94
2023/04/13 09:37:54;;;;;;;11.50;2.17;;;15.70;99.90;;;;;;4053532;29;20185;-94
2023/04/13 09:40:07;;;;;;;15.30;1.98;;;15.80;99.90;;;;;;4053608;29;20177;-93
2023/04/13 09:42:11;;;;;;;15.25;2.60;;;16.20;99.90;;;;;;4053815;29;20211;-94
2023/04/13 09:44:19;;;;;;;11.88;2.25;;;16.60;99.90;;;;;;4069034;29;20212;-93
2023/04/13 09:46:21;;;;;;;12.48;2.22;;;17.00;99.90;;;;;;4069202;29;20179;-94
2023/04/13 09:48:21;;;;;;;13.18;1.90;;;16.30;99.90;;;;;;4069004;29;20515;-91
2023/04/13 09:50:27;;;;;;;10.98;1.85;;;16.20;99.90;;;;;;4053270;29;20240;-93
2023/04/13 09:52:28;;;;;;;16.48;1.88;;;15.90;99.90;;;;;;4069119;29;20586;-93
2023/04/13 09:54:28;;;;;;;15.25;2.30;;;15.60;99.90;;;;;;4068669;29;20204;-94
2023/04/13 09:56:30;;;;;;;11.65;2.08;;;14.90;99.90;;;;;;4052952;29;20172;-92
2023/04/13 09:58:31;;;;;;;10.77;1.73;;;14.60;99.90;;;;;;4068658;29;20191;-95
2023/04/13 10:00:32;;;;;;;13.80;2.30;;;14.50;99.90;;;;;;4052793;29;20606;-93
2023/04/13 10:02:34;;;;;;;15.05;1.92;;;14.60;99.90;;;;;;4052663;29;20305;-93
2023/04/13 10:04:35;;;;;;;19.20;2.00;;;14.90;99.90;;;;;;4053151;29;20200;-93
2023/04/13 10:06:41;;;;;;;9.50;1.55;;;15.40;99.90;;;;;;4084374;29;20390;-93
2023/04/13 10:08:42;;;;;;;10.57;2.25;;;15.80;99.90;;;;;;4068905;29;20263;-91
2023/04/13 10:10:43;;;;;;;10.57;1.83;;;15.70;99.90;;;;;;4053798;29;20188;-94
2023/04/13 10:12:52;;;;;;;15.93;1.88;;;15.80;99.90;;;;;;4053075;29;20169;-92
2023/04/13 10:15:17;;;;;;;9.80;1.90;;;15.90;99.90;;;;;;4053073;29;20220;-93
2023/04/13 10:17:53;;;;;;;12.25;1.88;;;16.00;99.90;;;;;;4052938;29;20183;-91
2023/04/13 10:20:00;;;;;;;12.30;2.03;;;15.70;99.90;;;;;;4053026;29;20190;-95
2023/04/13 10:22:03;;;;;;;8.82;2.10;;;15.70;99.90;;;;;;4053482;29;20658;-91
2023/04/13 10:24:10;;;;;;;12.27;2.17;;;14.80;99.90;;;;;;4054178;29;20208;-94
2023/04/13 10:26:11;;;;;;;11.10;1.48;;;14.40;99.90;;;;;;4056214;29;20614;-94
2023/04/13 10:28:12;;;;;;;12.63;1.50;;;14.30;99.90;;;;;;4056328;29;20189;-93
2023/04/13 10:30:17;;;;;;;9.98;1.58;;;14.00;99.90;;;;;;4056510;29;20179;-93
2023/04/13 10:32:35;;;;;;;12.30;1.90;;;14.00;99.90;;;;;;4071634;29;20180;-92
2023/04/13 10:34:37;;;;;;;9.32;1.50;;;14.00;99.90;;;;;;4072059;29;20245;-93
2023/04/13 10:36:40;;;;;;;14.98;1.60;;;13.70;99.90;;;;;;4071900;29;20176;-92
2023/04/13 10:38:45;;;;;;;9.35;1.83;;;13.60;99.90;;;;;;4056322;29;20312;-95
2023/04/13 10:40:47;;;;;;;11.88;1.77;;;13.90;99.90;;;;;;4055996;29;20263;-93
2023/04/13 10:42:48;;;;;;;14.15;1.90;;;14.00;99.90;;;;;;4055790;29;20694;-93
2023/04/13 10:44:51;;;;;;;10.38;2.10;;;14.20;99.90;;;;;;4071438;29;20308;-92